Time;durP1;ratioP1;P1;durP2;ratioP2;P2;SDS_P1;SDS_P2;PMS_P1;PMS_P2;Temp;Humidity;BMP_temperature;BMP_pressure;BME280_temperature;BME280_humidity;BME280_pressure;Samples;Min_cycle;Max_cycle;Signal;HPM_P1;HPM_P2
2020/12/05 00:02:25;;;;;;;1.67;1.57;;;2.30;98.00;;;;;;5075253;28;20459;-62
2020/12/05 00:04:52;;;;;;;2.07;1.70;;;2.30;98.00;;;;;;5073275;28;21012;-62
2020/12/05 00:07:19;;;;;;;1.93;1.50;;;2.20;98.00;;;;;;5074038;28;20448;-62
2020/12/05 00:09:46;;;;;;;1.20;1.10;;;2.10;98.00;;;;;;5074920;28;20452;-61
2020/12/05 00:12:13;;;;;;;4.83;2.50;;;2.10;98.00;;;;;;5074730;28;21013;-62
2020/12/05 00:14:42;;;;;;;1.40;1.37;;;2.00;98.00;;;;;;5074968;28;20463;-62
2020/12/05 00:17:11;;;;;;;1.20;1.10;;;2.10;98.00;;;;;;5072321;28;20487;-62
2020/12/05 00:19:38;;;;;;;1.30;1.30;;;2.20;98.00;;;;;;5075315;28;20803;-64
2020/12/05 00:22:04;;;;;;;1.23;1.20;;;2.20;98.00;;;;;;5073596;28;20502;-62
2020/12/05 00:24:31;;;;;;;3.03;2.00;;;2.30;98.00;;;;;;5075461;28;20873;-62
2020/12/05 00:26:57;;;;;;;4.03;2.10;;;2.30;98.00;;;;;;5072074;28;21027;-62
2020/12/05 00:29:24;;;;;;;1.40;1.30;;;2.30;98.00;;;;;;5075041;28;20500;-64
2020/12/05 00:31:51;;;;;;;1.80;1.60;;;2.30;98.00;;;;;;5073199;28;20506;-63
2020/12/05 00:34:19;;;;;;;1.70;1.50;;;2.30;98.00;;;;;;5074994;28;20963;-62
2020/12/05 00:36:47;;;;;;;2.33;2.20;;;2.40;98.00;;;;;;5073138;28;20517;-63
2020/12/05 00:39:14;;;;;;;1.40;1.30;;;2.40;98.00;;;;;;5074879;28;20455;-62
2020/12/05 00:41:41;;;;;;;1.50;1.40;;;2.40;98.00;;;;;;5073116;28;20513;-62
2020/12/05 00:44:08;;;;;;;2.37;2.00;;;2.40;98.00;;;;;;5074752;28;20452;-62
2020/12/05 00:46:34;;;;;;;1.60;1.57;;;2.50;98.00;;;;;;5072980;28;21019;-62
2020/12/05 00:49:05;;;;;;;1.33;1.27;;;2.50;98.00;;;;;;5074598;28;20459;-62
2020/12/05 00:51:32;;;;;;;6.60;2.10;;;2.50;98.00;;;;;;5072567;28;20494;-62
2020/12/05 00:53:59;;;;;;;1.77;1.63;;;2.40;98.00;;;;;;5074596;28;20808;-63
2020/12/05 00:56:26;;;;;;;10.13;3.63;;;2.50;98.00;;;;;;5071369;28;20456;-62
2020/12/05 00:58:53;;;;;;;4.33;1.97;;;2.50;98.00;;;;;;5072933;28;20459;-62
2020/12/05 01:01:19;;;;;;;1.50;1.50;;;2.50;98.00;;;;;;5072652;28;20516;-63
2020/12/05 01:03:48;;;;;;;1.20;1.00;;;2.50;98.00;;;;;;5073139;28;20444;-62
2020/12/05 01:06:15;;;;;;;5.73;4.10;;;2.60;98.00;;;;;;5071709;28;20869;-62
2020/12/05 01:08:44;;;;;;;1.97;1.83;;;2.60;98.00;;;;;;5073591;28;20460;-61
2020/12/05 01:11:15;;;;;;;1.67;1.50;;;2.60;98.00;;;;;;5072190;28;20485;-62
2020/12/05 01:13:44;;;;;;;1.97;1.40;;;2.60;98.00;;;;;;5074161;28;20593;-63
2020/12/05 01:16:14;;;;;;;1.57;1.47;;;2.60;98.00;;;;;;5071937;28;21005;-62
2020/12/05 01:18:42;;;;;;;3.20;1.93;;;2.70;98.00;;;;;;5074099;28;20509;-63
2020/12/05 01:21:10;;;;;;;1.23;1.17;;;2.70;98.00;;;;;;5071070;28;20521;-63
2020/12/05 01:23:36;;;;;;;1.57;1.50;;;2.70;98.00;;;;;;5074003;28;20467;-61
2020/12/05 01:26:06;;;;;;;2.60;1.80;;;2.70;98.00;;;;;;5072390;28;20949;-61
2020/12/05 01:28:33;;;;;;;1.30;1.10;;;2.70;98.00;;;;;;5073844;28;20468;-61
2020/12/05 01:31:00;;;;;;;1.20;1.10;;;2.60;98.00;;;;;;5072128;28;20509;-62
2020/12/05 01:33:26;;;;;;;1.80;1.30;;;2.60;98.00;;;;;;5073761;28;20873;-61
2020/12/05 01:35:53;;;;;;;1.30;1.20;;;2.70;98.00;;;;;;5071891;28;20560;-61
2020/12/05 01:38:20;;;;;;;1.90;1.83;;;2.80;98.00;;;;;;5073569;28;20459;-63
2020/12/05 01:40:51;;;;;;;2.60;1.73;;;2.70;98.00;;;;;;5073524;28;20476;-62
2020/12/05 01:43:19;;;;;;;1.53;1.53;;;2.80;98.00;;;;;;5071919;28;20457;-63
2020/12/05 01:45:47;;;;;;;5.73;2.60;;;2.70;98.00;;;;;;5072272;28;20861;-62
2020/12/05 01:48:15;;;;;;;1.93;1.83;;;2.70;98.00;;;;;;5072013;28;20471;-62
2020/12/05 01:50:42;;;;;;;2.70;2.40;;;2.80;98.00;;;;;;5073518;28;20452;-61
2020/12/05 01:53:08;;;;;;;4.23;3.33;;;2.80;98.00;;;;;;5071343;28;20481;-62
2020/12/05 01:55:35;;;;;;;5.77;2.73;;;2.80;98.00;;;;;;5073307;28;20507;-62
2020/12/05 01:58:02;;;;;;;1.30;1.30;;;2.80;98.00;;;;;;5071626;28;20461;-63
2020/12/05 02:00:29;;;;;;;2.20;1.77;;;2.90;98.00;;;;;;5073143;28;20491;-62
2020/12/05 02:02:56;;;;;;;2.73;2.03;;;2.80;98.00;;;;;;5071215;28;20490;-62
2020/12/05 02:05:49;;;;;;;1.50;1.20;;;2.70;98.00;;;;;;5073241;28;20459;-62
2020/12/05 02:08:24;;;;;;;2.20;1.90;;;2.60;98.00;;;;;;5071175;28;20463;-62
2020/12/05 02:10:51;;;;;;;3.57;2.00;;;2.60;98.00;;;;;;5073142;28;20459;-62
2020/12/05 02:13:25;;;;;;;2.40;2.20;;;2.60;98.00;;;;;;5071383;28;20484;-61
2020/12/05 02:15:53;;;;;;;4.23;2.57;;;2.70;98.00;;;;;;5072178;28;20459;-62
2020/12/05 02:18:20;;;;;;;4.93;2.20;;;2.70;98.00;;;;;;5071239;28;20458;-61
2020/12/05 02:20:49;;;;;;;1.80;1.43;;;2.60;98.00;;;;;;5073368;28;20471;-63
2020/12/05 02:23:18;;;;;;;2.50;1.60;;;2.60;98.00;;;;;;5071286;28;20456;-62
2020/12/05 02:25:47;;;;;;;3.47;1.60;;;2.70;98.00;;;;;;5072834;28;20925;-63
2020/12/05 02:28:16;;;;;;;2.13;1.50;;;2.80;98.00;;;;;;5070962;28;20864;-62
2020/12/05 02:30:43;;;;;;;2.10;1.83;;;2.80;98.00;;;;;;5072797;28;20521;-61
2020/12/05 02:33:09;;;;;;;1.93;1.70;;;2.90;98.00;;;;;;5069336;28;20885;-63
2020/12/05 02:35:36;;;;;;;1.80;1.80;;;2.80;98.00;;;;;;5072600;28;20457;-62
2020/12/05 02:38:07;;;;;;;2.23;2.07;;;2.80;98.00;;;;;;5070709;28;20537;-62
2020/12/05 02:40:35;;;;;;;2.33;2.10;;;2.80;98.00;;;;;;5072608;28;20510;-61
2020/12/05 02:43:02;;;;;;;1.80;1.30;;;2.80;98.00;;;;;;5070393;28;20449;-62
2020/12/05 02:45:29;;;;;;;2.53;1.77;;;2.70;98.00;;;;;;5072610;28;20529;-61
2020/12/05 02:47:56;;;;;;;2.33;2.13;;;2.80;98.00;;;;;;5070590;28;20460;-62
2020/12/05 02:50:22;;;;;;;2.87;2.13;;;2.90;98.00;;;;;;5072347;28;20459;-62
2020/12/05 02:52:48;;;;;;;1.57;1.53;;;2.90;98.00;;;;;;5070540;28;20534;-62
2020/12/05 02:55:17;;;;;;;2.40;1.70;;;2.80;98.00;;;;;;5072183;28;20459;-62
2020/12/05 02:57:45;;;;;;;3.53;1.80;;;2.90;98.00;;;;;;5070576;28;20516;-62
2020/12/05 03:00:12;;;;;;;3.43;1.47;;;2.90;98.00;;;;;;5071799;28;20460;-63
2020/12/05 03:02:39;;;;;;;6.60;2.43;;;2.80;98.00;;;;;;5070033;28;20951;-61
2020/12/05 03:05:07;;;;;;;1.70;1.60;;;2.80;98.00;;;;;;5071921;28;20444;-62
2020/12/05 03:07:34;;;;;;;2.10;1.97;;;2.90;98.00;;;;;;5070034;28;20452;-62
2020/12/05 03:10:03;;;;;;;2.60;1.63;;;2.80;98.00;;;;;;5071981;28;20455;-62
2020/12/05 03:12:30;;;;;;;2.50;1.83;;;2.80;98.00;;;;;;5069998;28;20549;-61
2020/12/05 03:14:57;;;;;;;1.40;1.30;;;2.70;98.00;;;;;;5071829;28;20938;-61
2020/12/05 03:17:24;;;;;;;2.20;1.73;;;2.70;98.00;;;;;;5069859;28;20460;-62
2020/12/05 03:19:51;;;;;;;1.40;1.20;;;2.70;98.00;;;;;;5071238;28;20455;-62
2020/12/05 03:22:17;;;;;;;2.07;1.53;;;2.70;98.00;;;;;;5067024;28;20531;-63
2020/12/05 03:24:44;;;;;;;5.30;3.90;;;2.70;98.00;;;;;;5071543;28;20502;-63
2020/12/05 03:27:11;;;;;;;1.37;1.30;;;2.70;98.00;;;;;;5069585;28;20463;-62
2020/12/05 03:29:39;;;;;;;2.77;1.97;;;2.80;98.00;;;;;;5070581;28;20464;-62
2020/12/05 03:32:10;;;;;;;1.70;1.40;;;2.80;98.00;;;;;;5070080;28;20507;-64
2020/12/05 03:34:37;;;;;;;1.20;1.10;;;2.90;98.00;;;;;;5069855;28;20946;-62
2020/12/05 03:37:03;;;;;;;2.03;1.30;;;3.00;98.00;;;;;;5053635;28;20445;-61
2020/12/05 03:39:30;;;;;;;3.73;2.70;;;2.70;98.00;;;;;;5069750;28;20460;-62
2020/12/05 03:41:57;;;;;;;3.30;2.83;;;2.60;98.00;;;;;;5071379;28;20459;-63
2020/12/05 03:44:26;;;;;;;1.20;1.00;;;2.60;98.00;;;;;;5069748;28;20525;-62
2020/12/05 03:46:52;;;;;;;2.17;1.53;;;2.50;98.00;;;;;;5071405;28;20528;-62
2020/12/05 03:49:23;;;;;;;1.77;1.50;;;2.40;98.00;;;;;;5069549;28;20489;-63
2020/12/05 03:51:49;;;;;;;7.70;2.03;;;2.40;98.00;;;;;;5071564;28;20488;-62
2020/12/05 03:54:16;;;;;;;1.53;1.43;;;2.30;98.00;;;;;;5069719;28;20464;-62
2020/12/05 03:56:42;;;;;;;1.53;1.37;;;2.50;98.00;;;;;;5071614;28;20518;-62
2020/12/05 03:59:08;;;;;;;1.57;1.53;;;2.60;98.00;;;;;;5069580;28;20967;-62
2020/12/05 04:01:35;;;;;;;3.17;2.20;;;2.80;98.00;;;;;;5071386;28;20613;-62
2020/12/05 04:04:01;;;;;;;2.57;1.50;;;2.70;98.00;;;;;;5069544;28;20472;-63
2020/12/05 04:06:29;;;;;;;1.60;1.50;;;2.50;98.00;;;;;;5071428;28;20464;-62
2020/12/05 04:08:55;;;;;;;2.80;1.87;;;2.40;98.00;;;;;;5069435;28;20445;-62
2020/12/05 04:11:23;;;;;;;1.57;1.20;;;2.30;98.00;;;;;;5071232;28;20521;-62
2020/12/05 04:13:50;;;;;;;2.87;2.37;;;2.30;98.00;;;;;;5068584;28;20460;-62
2020/12/05 04:16:16;;;;;;;1.50;1.27;;;2.30;98.00;;;;;;5070336;28;20856;-61
2020/12/05 04:18:43;;;;;;;1.10;1.00;;;2.30;98.00;;;;;;5069402;28;20459;-63
2020/12/05 04:21:09;;;;;;;2.07;1.70;;;2.30;98.00;;;;;;5071276;28;20801;-63
2020/12/05 04:23:37;;;;;;;1.70;1.60;;;2.20;98.00;;;;;;5051576;28;21086;-62
2020/12/05 04:26:03;;;;;;;2.47;2.23;;;2.10;98.00;;;;;;5071286;28;21083;-63
2020/12/05 04:28:30;;;;;;;1.20;1.10;;;2.20;98.00;;;;;;5069324;28;20471;-62
2020/12/05 04:30:56;;;;;;;1.30;1.13;;;2.30;98.00;;;;;;5071302;28;20459;-62
2020/12/05 04:33:23;;;;;;;2.20;1.70;;;2.50;98.00;;;;;;5068994;28;20488;-62
2020/12/05 04:35:49;;;;;;;2.73;2.37;;;2.50;98.00;;;;;;5071182;28;20456;-63
2020/12/05 04:38:16;;;;;;;2.33;2.13;;;2.40;98.00;;;;;;5069382;28;20526;-62
2020/12/05 04:40:43;;;;;;;5.47;1.47;;;2.30;98.00;;;;;;5074585;28;20505;-62
2020/12/05 04:43:11;;;;;;;3.33;1.83;;;2.40;98.00;;;;;;5074493;28;20941;-63
2020/12/05 04:45:39;;;;;;;2.03;1.83;;;2.40;98.00;;;;;;5072445;28;20514;-62
2020/12/05 04:48:06;;;;;;;2.80;2.07;;;2.30;98.00;;;;;;5074585;28;20513;-62
2020/12/05 04:50:38;;;;;;;1.20;1.20;;;2.20;98.00;;;;;;5072742;28;20464;-62
2020/12/05 04:53:11;;;;;;;1.33;1.27;;;2.20;98.00;;;;;;5074644;28;20892;-62
2020/12/05 04:55:41;;;;;;;2.00;1.83;;;2.30;98.00;;;;;;5072725;28;20971;-61
2020/12/05 04:58:17;;;;;;;1.60;1.50;;;2.40;98.00;;;;;;5074354;28;20451;-63
2020/12/05 05:00:44;;;;;;;1.50;1.50;;;2.30;98.00;;;;;;5072559;28;20471;-63
2020/12/05 05:03:15;;;;;;;3.37;2.10;;;2.20;98.00;;;;;;5074330;28;20483;-62
2020/12/05 05:05:42;;;;;;;2.43;1.50;;;2.10;98.00;;;;;;5072433;28;20487;-62
2020/12/05 05:08:12;;;;;;;1.57;1.30;;;2.10;98.00;;;;;;5074270;28;20460;-62
2020/12/05 05:10:39;;;;;;;1.83;1.30;;;2.00;98.00;;;;;;5072871;28;20447;-62
2020/12/05 05:13:13;;;;;;;1.50;1.40;;;2.20;98.00;;;;;;5074105;28;20850;-62
2020/12/05 05:15:41;;;;;;;1.80;1.70;;;2.20;98.00;;;;;;5072439;28;20460;-62
2020/12/05 05:18:08;;;;;;;4.13;2.90;;;2.30;98.00;;;;;;5072838;28;20514;-62
2020/12/05 05:20:38;;;;;;;1.50;1.33;;;2.30;98.00;;;;;;5071205;28;20452;-62
2020/12/05 05:23:12;;;;;;;4.70;1.63;;;2.50;98.00;;;;;;5074458;28;20490;-62
2020/12/05 05:25:53;;;;;;;2.60;2.33;;;2.60;98.00;;;;;;5072013;28;20452;-62
2020/12/05 05:28:21;;;;;;;1.93;1.70;;;2.60;98.00;;;;;;5074119;28;20501;-62
2020/12/05 05:31:03;;;;;;;1.90;1.80;;;2.70;98.00;;;;;;5072169;28;20443;-62
2020/12/05 05:33:44;;;;;;;1.20;1.20;;;2.70;98.00;;;;;;5073877;28;20858;-62
2020/12/05 05:36:22;;;;;;;1.30;1.20;;;2.70;98.00;;;;;;5071868;28;20521;-62
2020/12/05 05:39:01;;;;;;;1.30;1.30;;;2.70;98.00;;;;;;5072600;28;20467;-62
2020/12/05 05:41:28;;;;;;;2.43;2.23;;;2.70;98.00;;;;;;5073682;28;20863;-62
2020/12/05 05:43:57;;;;;;;2.43;1.93;;;2.80;98.00;;;;;;5073542;28;20460;-62
2020/12/05 05:46:29;;;;;;;1.60;1.50;;;2.80;98.00;;;;;;5071981;28;20466;-62
2020/12/05 05:48:57;;;;;;;1.60;1.53;;;2.80;98.00;;;;;;5072334;28;20528;-62
2020/12/05 05:51:43;;;;;;;6.17;2.87;;;2.80;98.00;;;;;;5071667;28;20498;-63
2020/12/05 05:54:17;;;;;;;1.87;1.77;;;2.90;98.00;;;;;;5072081;28;20502;-63
2020/12/05 05:56:58;;;;;;;1.50;1.40;;;2.90;98.00;;;;;;5073348;28;20459;-62
2020/12/05 05:59:26;;;;;;;2.50;2.30;;;2.80;98.00;;;;;;5071068;28;20459;-63
2020/12/05 06:01:54;;;;;;;7.53;1.63;;;2.60;98.00;;;;;;5073051;28;20465;-62
2020/12/05 06:04:29;;;;;;;2.27;1.67;;;2.50;98.00;;;;;;5071745;28;20534;-63
2020/12/05 06:06:58;;;;;;;3.57;2.70;;;2.50;98.00;;;;;;5073084;28;20451;-63
2020/12/05 06:09:33;;;;;;;1.63;1.63;;;2.50;98.00;;;;;;5071758;28;20462;-62
2020/12/05 06:12:02;;;;;;;3.33;1.57;;;2.40;98.00;;;;;;5072883;28;20483;-63
2020/12/05 06:14:30;;;;;;;1.47;1.10;;;2.50;98.00;;;;;;5069890;28;20460;-63
2020/12/05 06:16:58;;;;;;;1.20;1.20;;;2.50;98.00;;;;;;5073044;28;20452;-63
2020/12/05 06:19:25;;;;;;;5.10;1.67;;;2.50;98.00;;;;;;5072902;28;20513;-62
2020/12/05 06:21:53;;;;;;;2.80;1.73;;;2.40;98.00;;;;;;5070828;28;20950;-62
2020/12/05 06:24:34;;;;;;;6.53;2.23;;;2.40;98.00;;;;;;5072710;28;20455;-63
2020/12/05 06:27:02;;;;;;;1.90;1.83;;;2.40;98.00;;;;;;5070912;28;20459;-62
2020/12/05 06:29:32;;;;;;;2.73;1.80;;;2.40;98.00;;;;;;5072748;28;20463;-62
2020/12/05 06:32:02;;;;;;;3.10;1.80;;;2.60;98.00;;;;;;5070958;28;20488;-62
2020/12/05 06:34:43;;;;;;;1.50;1.47;;;2.60;98.00;;;;;;5072441;28;20459;-62
2020/12/05 06:37:12;;;;;;;6.33;2.20;;;2.50;98.00;;;;;;5070820;28;20922;-62
2020/12/05 06:39:39;;;;;;;1.70;1.33;;;2.60;98.00;;;;;;5072662;28;20486;-62
2020/12/05 06:42:18;;;;;;;2.00;1.70;;;2.60;98.00;;;;;;5070307;28;20510;-62
2020/12/05 06:44:45;;;;;;;1.77;1.77;;;2.60;98.00;;;;;;5072431;28;20451;-62
2020/12/05 06:47:24;;;;;;;1.53;1.47;;;2.60;98.00;;;;;;5070296;28;20492;-63
2020/12/05 06:49:55;;;;;;;1.33;1.27;;;2.50;98.00;;;;;;5072397;28;20455;-62
2020/12/05 06:52:34;;;;;;;1.50;1.37;;;2.50;98.00;;;;;;5069938;28;20533;-63
2020/12/05 06:55:05;;;;;;;2.43;1.67;;;2.50;98.00;;;;;;5070421;28;20456;-62
2020/12/05 06:57:33;;;;;;;4.97;1.63;;;2.50;98.00;;;;;;5071415;28;20456;-62
2020/12/05 07:00:27;;;;;;;2.20;1.43;;;2.60;98.00;;;;;;5071568;28;21008;-62
2020/12/05 07:02:56;;;;;;;2.27;1.87;;;2.70;98.00;;;;;;5035752;28;20537;-62
2020/12/05 07:05:33;;;;;;;1.47;1.37;;;2.60;98.00;;;;;;5070237;28;20497;-62
2020/12/05 07:08:01;;;;;;;4.30;2.40;;;2.70;98.00;;;;;;5072026;28;20460;-62
2020/12/05 07:10:49;;;;;;;1.40;1.30;;;2.70;98.00;;;;;;5070442;28;20514;-62
2020/12/05 07:13:17;;;;;;;1.70;1.20;;;2.70;98.00;;;;;;5071905;28;20483;-62
2020/12/05 07:15:44;;;;;;;3.53;1.60;;;2.60;98.00;;;;;;5068693;28;20460;-62
2020/12/05 07:18:19;;;;;;;1.50;1.47;;;2.40;98.00;;;;;;5072024;28;21052;-61
2020/12/05 07:20:46;;;;;;;2.63;1.93;;;2.30;98.00;;;;;;5070328;28;20462;-62
2020/12/05 07:23:13;;;;;;;4.00;1.77;;;2.20;98.00;;;;;;5071715;28;20462;-62
2020/12/05 07:25:39;;;;;;;4.77;1.80;;;2.20;98.00;;;;;;5070244;28;20459;-63
2020/12/05 07:28:06;;;;;;;1.40;1.33;;;2.20;98.00;;;;;;5071561;28;20452;-62
2020/12/05 07:30:34;;;;;;;1.63;1.40;;;2.30;98.00;;;;;;5071219;28;20453;-63
2020/12/05 07:33:01;;;;;;;2.07;1.60;;;2.30;98.00;;;;;;5069307;28;20538;-62
2020/12/05 07:35:28;;;;;;;2.23;1.70;;;2.30;98.00;;;;;;5071600;28;20460;-62
2020/12/05 07:37:54;;;;;;;1.20;1.20;;;2.20;98.00;;;;;;5069722;28;20455;-62
2020/12/05 07:40:28;;;;;;;1.20;1.20;;;2.10;98.00;;;;;;5071381;28;20996;-62
2020/12/05 07:42:55;;;;;;;3.10;1.93;;;2.10;98.00;;;;;;5069125;28;20601;-62
2020/12/05 07:45:21;;;;;;;2.03;1.57;;;2.10;98.00;;;;;;5053588;28;20460;-63
2020/12/05 07:47:48;;;;;;;1.67;1.40;;;2.10;98.00;;;;;;5069401;28;20526;-62
2020/12/05 07:50:15;;;;;;;1.20;1.10;;;2.10;98.00;;;;;;5071220;28;20455;-61
2020/12/05 07:52:42;;;;;;;1.50;1.50;;;2.10;98.00;;;;;;5069142;28;21069;-62
2020/12/05 07:55:11;;;;;;;4.07;2.10;;;2.10;98.00;;;;;;5071234;28;20452;-62
2020/12/05 07:57:39;;;;;;;1.80;1.37;;;2.10;98.00;;;;;;5069393;28;20451;-62
2020/12/05 08:00:08;;;;;;;1.20;1.20;;;2.00;98.00;;;;;;5071074;28;20484;-62
2020/12/05 08:02:46;;;;;;;1.97;1.50;;;2.00;98.00;;;;;;5069390;28;20455;-62
2020/12/05 08:05:25;;;;;;;1.60;1.43;;;2.10;98.00;;;;;;5070937;28;20797;-62
2020/12/05 08:07:58;;;;;;;1.53;1.43;;;2.10;98.00;;;;;;5069493;28;20457;-61
2020/12/05 08:10:28;;;;;;;5.57;2.80;;;2.20;98.00;;;;;;5071046;28;20462;-62
2020/12/05 08:13:20;;;;;;;1.97;1.20;;;2.40;98.00;;;;;;5070481;28;20488;-61
2020/12/05 08:15:49;;;;;;;1.73;1.63;;;2.50;98.00;;;;;;5075372;28;20501;-62
2020/12/05 08:18:19;;;;;;;1.57;1.57;;;2.70;98.00;;;;;;5073258;28;20991;-62
2020/12/05 08:20:46;;;;;;;1.73;1.20;;;2.60;98.00;;;;;;5075136;28;20455;-63
2020/12/05 08:23:29;;;;;;;1.20;1.20;;;2.60;98.00;;;;;;5072780;28;20514;-62
2020/12/05 08:25:59;;;;;;;1.20;1.20;;;2.60;98.00;;;;;;5074983;28;20452;-61
2020/12/05 08:28:27;;;;;;;3.93;2.30;;;2.60;98.00;;;;;;5073000;28;20808;-62
2020/12/05 08:30:55;;;;;;;1.63;1.53;;;2.60;98.00;;;;;;5074836;28;20452;-63
2020/12/05 08:33:23;;;;;;;3.93;1.47;;;2.60;98.00;;;;;;5072629;28;20480;-61
2020/12/05 08:35:49;;;;;;;2.70;1.67;;;2.70;98.00;;;;;;5073412;28;20455;-63
2020/12/05 08:38:23;;;;;;;1.80;1.40;;;2.80;98.00;;;;;;5072018;28;20523;-63
2020/12/05 08:41:02;;;;;;;1.33;1.27;;;2.90;98.00;;;;;;5074334;28;20533;-63
2020/12/05 08:43:30;;;;;;;2.13;1.63;;;3.00;98.00;;;;;;5072130;28;20784;-63
2020/12/05 08:45:56;;;;;;;1.10;0.90;;;3.10;98.00;;;;;;5074435;28;20451;-61
2020/12/05 08:48:24;;;;;;;1.70;1.67;;;3.10;98.00;;;;;;5072259;28;20449;-61
2020/12/05 08:50:50;;;;;;;1.20;1.10;;;3.10;98.00;;;;;;5074371;28;20453;-61
2020/12/05 08:53:22;;;;;;;1.30;1.30;;;3.10;98.00;;;;;;5071877;28;20488;-62
2020/12/05 08:55:50;;;;;;;1.20;1.20;;;3.00;98.00;;;;;;5084350;28;20804;-62
2020/12/05 08:58:17;;;;;;;2.17;2.07;;;3.00;98.00;;;;;;5092644;28;20452;-62
2020/12/05 09:00:50;;;;;;;1.67;1.10;;;3.00;98.00;;;;;;5093955;28;20524;-62
2020/12/05 09:03:18;;;;;;;1.50;1.50;;;3.10;98.00;;;;;;5092465;28;20458;-62
2020/12/05 09:05:46;;;;;;;1.20;1.20;;;3.40;98.00;;;;;;5094161;28;20462;-63
2020/12/05 09:08:19;;;;;;;2.97;2.63;;;3.50;98.00;;;;;;5092337;28;20451;-62
2020/12/05 09:10:46;;;;;;;1.77;1.50;;;3.50;98.00;;;;;;5094076;28;20452;-62
2020/12/05 09:13:12;;;;;;;2.33;1.23;;;3.40;98.00;;;;;;5092002;28;20483;-63
2020/12/05 09:15:56;;;;;;;1.40;1.30;;;3.50;98.00;;;;;;5093974;28;20448;-62
2020/12/05 09:18:23;;;;;;;2.23;1.47;;;3.50;98.00;;;;;;5092079;28;20460;-63
2020/12/05 09:20:50;;;;;;;1.70;1.60;;;3.50;98.00;;;;;;5094027;28;20444;-62
2020/12/05 09:23:28;;;;;;;1.73;1.50;;;3.40;98.00;;;;;;5091630;28;20837;-62
2020/12/05 09:26:02;;;;;;;2.57;2.00;;;3.40;98.00;;;;;;5093132;28;20512;-62
2020/12/05 09:28:30;;;;;;;1.83;1.60;;;3.30;98.00;;;;;;5091893;28;20504;-62
2020/12/05 09:30:57;;;;;;;9.87;5.17;;;3.30;98.00;;;;;;5093910;28;20483;-62
2020/12/05 09:33:25;;;;;;;1.57;1.53;;;3.40;98.00;;;;;;5092090;28;20974;-62
2020/12/05 09:35:51;;;;;;;1.40;1.30;;;3.40;98.00;;;;;;5092623;28;20456;-62
2020/12/05 09:38:18;;;;;;;1.87;1.40;;;3.40;98.00;;;;;;5091743;28;20509;-62
2020/12/05 09:40:45;;;;;;;1.20;1.07;;;3.40;98.00;;;;;;5092831;28;20487;-63
2020/12/05 09:43:13;;;;;;;1.20;1.20;;;3.50;98.00;;;;;;5091812;28;20454;-62
2020/12/05 09:45:39;;;;;;;1.70;1.60;;;3.50;98.00;;;;;;5092903;28;20460;-63
2020/12/05 09:48:07;;;;;;;1.20;1.10;;;3.50;98.00;;;;;;5091503;28;20526;-62
2020/12/05 09:50:34;;;;;;;1.40;1.30;;;3.50;98.00;;;;;;5092807;28;20485;-62
2020/12/05 09:53:00;;;;;;;1.30;1.30;;;3.60;98.00;;;;;;5091446;28;20519;-62
2020/12/05 09:55:27;;;;;;;5.20;3.07;;;3.70;98.00;;;;;;5092602;28;20475;-63
2020/12/05 09:57:55;;;;;;;1.70;1.23;;;3.80;98.00;;;;;;5090986;28;20441;-62
2020/12/05 10:00:23;;;;;;;2.50;2.07;;;3.70;98.00;;;;;;5091127;28;20475;-62
2020/12/05 10:02:49;;;;;;;5.00;1.60;;;3.70;98.00;;;;;;5091405;28;20505;-63
2020/12/05 10:05:17;;;;;;;1.60;1.60;;;3.80;98.00;;;;;;5092593;28;20504;-62
2020/12/05 10:07:43;;;;;;;1.87;1.77;;;3.80;98.00;;;;;;5091058;28;20505;-62
2020/12/05 10:10:11;;;;;;;2.20;1.47;;;3.90;98.00;;;;;;5092397;28;20455;-62
2020/12/05 10:12:38;;;;;;;1.53;1.50;;;3.80;98.00;;;;;;5090360;28;21005;-62
2020/12/05 10:15:06;;;;;;;1.50;1.40;;;3.80;98.00;;;;;;5092036;28;20448;-62
2020/12/05 10:17:33;;;;;;;3.30;2.67;;;3.80;98.00;;;;;;5090422;28;20951;-63
2020/12/05 10:20:00;;;;;;;2.33;1.50;;;3.80;98.00;;;;;;5092081;28;20444;-62
2020/12/05 10:22:27;;;;;;;1.73;1.63;;;3.70;98.00;;;;;;5092019;28;20987;-62
2020/12/05 10:24:54;;;;;;;1.70;1.40;;;3.70;98.00;;;;;;5090852;28;20823;-62
2020/12/05 10:27:20;;;;;;;1.70;1.53;;;3.70;98.00;;;;;;5091945;28;20613;-62
2020/12/05 10:29:47;;;;;;;3.00;1.50;;;3.70;98.00;;;;;;5090513;28;20505;-62
2020/12/05 10:32:13;;;;;;;1.20;1.10;;;3.70;98.00;;;;;;5091881;28;20448;-61
2020/12/05 10:34:40;;;;;;;1.30;1.30;;;3.70;98.00;;;;;;5090065;28;20456;-62
2020/12/05 10:37:06;;;;;;;4.13;2.60;;;3.80;98.00;;;;;;5090076;28;20454;-63
2020/12/05 10:39:34;;;;;;;1.20;1.20;;;3.80;98.00;;;;;;5090173;28;20460;-62
2020/12/05 10:42:00;;;;;;;2.13;1.93;;;3.90;98.00;;;;;;5091765;28;20452;-64
2020/12/05 10:44:27;;;;;;;5.33;1.87;;;3.80;98.00;;;;;;5090003;28;20444;-63
2020/12/05 10:46:53;;;;;;;2.13;1.93;;;3.90;98.00;;;;;;5091280;28;20947;-62
2020/12/05 10:49:22;;;;;;;2.53;1.87;;;3.90;98.00;;;;;;5090032;28;20484;-63
2020/12/05 10:51:49;;;;;;;1.43;1.30;;;3.80;98.00;;;;;;5091299;28;21000;-62
2020/12/05 10:54:16;;;;;;;10.50;4.40;;;3.80;98.00;;;;;;5089866;28;20483;-62
2020/12/05 10:56:43;;;;;;;2.67;1.47;;;3.90;98.00;;;;;;5091241;28;20594;-62
2020/12/05 10:59:10;;;;;;;2.27;1.83;;;3.90;98.00;;;;;;5088449;28;20495;-61
2020/12/05 11:01:37;;;;;;;2.63;1.63;;;3.80;98.00;;;;;;5090867;28;20664;-62
2020/12/05 11:04:05;;;;;;;1.87;1.77;;;3.90;98.00;;;;;;5089150;28;20515;-62
2020/12/05 11:06:31;;;;;;;2.40;1.60;;;4.00;98.00;;;;;;5090728;28;20455;-62
2020/12/05 11:08:58;;;;;;;1.93;1.47;;;4.00;98.00;;;;;;5089036;28;20489;-62
2020/12/05 11:11:24;;;;;;;2.00;1.70;;;4.00;98.00;;;;;;5090500;28;20537;-64
2020/12/05 11:13:52;;;;;;;2.77;2.10;;;4.00;98.00;;;;;;5089222;28;20548;-63
2020/12/05 11:16:19;;;;;;;1.60;1.53;;;3.90;98.00;;;;;;5090661;28;20486;-62
2020/12/05 11:18:46;;;;;;;2.90;2.70;;;3.90;98.00;;;;;;5088855;28;20939;-63
2020/12/05 11:21:15;;;;;;;1.87;1.40;;;3.90;98.00;;;;;;5090540;28;20812;-64
2020/12/05 11:23:41;;;;;;;4.23;2.50;;;4.00;98.00;;;;;;5088805;28;20448;-62
2020/12/05 11:26:12;;;;;;;3.30;2.00;;;4.00;98.00;;;;;;5090463;28;20506;-62
2020/12/05 11:28:39;;;;;;;2.33;1.67;;;4.10;98.00;;;;;;5088842;28;20872;-63
2020/12/05 11:31:08;;;;;;;3.87;1.80;;;4.00;98.00;;;;;;5090206;28;20456;-63
2020/12/05 11:33:34;;;;;;;3.57;2.13;;;3.90;98.00;;;;;;5088259;28;20565;-63
2020/12/05 11:36:03;;;;;;;2.43;1.77;;;3.80;98.00;;;;;;5090343;28;20478;-63
2020/12/05 11:38:30;;;;;;;2.43;2.27;;;3.80;98.00;;;;;;5089815;28;20484;-62
2020/12/05 11:40:58;;;;;;;1.90;1.60;;;3.80;98.00;;;;;;5088818;28;20514;-62
2020/12/05 11:43:25;;;;;;;1.73;1.63;;;3.90;98.00;;;;;;5090169;28;20537;-62
2020/12/05 11:45:51;;;;;;;1.87;1.20;;;3.90;98.00;;;;;;5088476;28;20493;-63
2020/12/05 11:48:19;;;;;;;1.20;1.17;;;3.80;98.00;;;;;;5088522;28;20448;-62
2020/12/05 11:50:45;;;;;;;3.60;2.67;;;3.90;98.00;;;;;;5088475;28;20763;-62
2020/12/05 11:53:12;;;;;;;2.93;2.00;;;4.00;98.00;;;;;;5090046;28;20519;-63
2020/12/05 11:55:38;;;;;;;1.40;1.30;;;3.90;98.00;;;;;;5088582;28;20512;-63
2020/12/05 11:58:05;;;;;;;1.50;1.40;;;3.90;98.00;;;;;;5090185;28;20533;-63
2020/12/05 12:00:31;;;;;;;3.80;1.60;;;3.80;98.00;;;;;;5088375;28;20456;-63
2020/12/05 12:02:58;;;;;;;1.83;1.60;;;3.80;98.00;;;;;;5089994;28;20485;-64
2020/12/05 12:05:28;;;;;;;1.87;1.77;;;3.80;98.00;;;;;;5088572;28;20532;-65
2020/12/05 12:07:54;;;;;;;2.67;1.93;;;3.70;98.00;;;;;;5090251;28;20525;-61
2020/12/05 12:10:20;;;;;;;3.30;1.60;;;3.70;98.00;;;;;;5088314;28;20512;-64
2020/12/05 12:12:47;;;;;;;2.13;1.60;;;3.80;98.00;;;;;;5089883;28;20483;-63
2020/12/05 12:15:14;;;;;;;1.60;1.40;;;3.80;98.00;;;;;;5088286;28;20455;-62
2020/12/05 12:17:41;;;;;;;1.70;1.60;;;4.00;98.00;;;;;;5090092;28;20451;-62
2020/12/05 12:20:10;;;;;;;5.10;2.50;;;4.00;98.00;;;;;;5088341;28;20456;-61
2020/12/05 12:22:38;;;;;;;1.30;1.30;;;4.20;98.00;;;;;;5090057;28;20448;-62
2020/12/05 12:25:05;;;;;;;2.10;1.57;;;4.30;98.00;;;;;;5088530;28;20460;-63
2020/12/05 12:27:32;;;;;;;3.63;1.93;;;4.30;98.00;;;;;;5090006;28;20938;-62
2020/12/05 12:29:58;;;;;;;2.40;1.70;;;4.40;98.00;;;;;;5088145;28;20945;-62
2020/12/05 12:32:25;;;;;;;1.90;1.87;;;4.50;98.00;;;;;;5089752;28;20865;-63
2020/12/05 12:34:51;;;;;;;1.73;1.70;;;4.40;98.00;;;;;;5088653;28;20512;-63
2020/12/05 12:37:18;;;;;;;2.43;1.80;;;4.60;98.00;;;;;;5089578;28;20452;-64
2020/12/05 12:39:46;;;;;;;1.50;1.43;;;4.50;98.00;;;;;;5088139;28;20456;-64
2020/12/05 12:42:12;;;;;;;3.67;1.53;;;4.40;98.00;;;;;;5089758;28;20489;-63
2020/12/05 12:44:39;;;;;;;3.20;2.17;;;4.30;98.00;;;;;;5088438;28;20448;-63
2020/12/05 12:47:36;;;;;;;1.20;1.10;;;4.40;98.00;;;;;;5090282;28;20950;-63
2020/12/05 12:50:05;;;;;;;1.43;1.23;;;4.30;98.00;;;;;;5088784;28;20899;-63
2020/12/05 12:52:32;;;;;;;1.13;1.03;;;4.30;98.00;;;;;;5090269;28;20637;-63
2020/12/05 12:54:59;;;;;;;1.17;1.10;;;4.30;98.00;;;;;;5088489;28;20509;-63
2020/12/05 12:57:29;;;;;;;2.23;1.63;;;4.40;98.00;;;;;;5090015;28;20510;-64
2020/12/05 12:59:55;;;;;;;1.40;1.20;;;4.30;98.00;;;;;;5090310;28;20470;-65
2020/12/05 13:02:22;;;;;;;1.57;1.57;;;4.30;98.00;;;;;;5093326;28;20451;-63
2020/12/05 13:04:49;;;;;;;1.83;1.67;;;4.30;98.00;;;;;;5092220;28;20456;-63
2020/12/05 13:07:15;;;;;;;2.87;2.10;;;4.40;98.00;;;;;;5093211;28;20448;-63